Time;durP1;ratioP1;P1;durP2;ratioP2;P2;SDS_P1;SDS_P2;PMS_P1;PMS_P2;Temp;Humidity;BMP_temperature;BMP_pressure;BME280_temperature;BME280_humidity;BME280_pressure;Samples;Min_cycle;Max_cycle;Signal;HPM_P1;HPM_P2
2022/11/04 00:01:37;;;;;;;27.57;11.77;;;;;;;16.33;100.00;99884.28;4988663;28;20042;-55
2022/11/04 00:04:03;;;;;;;29.70;12.77;;;;;;;15.74;100.00;99885.88;4992064;28;20297;-53
2022/11/04 00:06:28;;;;;;;30.73;12.60;;;;;;;16.01;100.00;99890.47;4988689;28;20280;-52
2022/11/04 00:08:56;;;;;;;39.60;14.30;;;;;;;16.43;100.00;99894.34;4992118;28;20066;-55
2022/11/04 00:14:08;;;;;;;36.70;17.20;;;;;;;15.42;100.00;99910.81;4990706;28;20273;-53
2022/11/04 00:19:18;;;;;;;33.50;15.23;;;;;;;15.83;100.00;99907.81;4989317;28;20265;-52
2022/11/04 00:30:07;;;;;;;4.27;2.10;;;;;;;14.63;100.00;99929.63;4992586;28;20284;-49
2022/11/04 00:35:18;;;;;;;1.70;1.00;;;;;;;14.97;100.00;99920.72;4992734;28;20275;-53
2022/11/04 00:37:44;;;;;;;2.22;0.80;;;;;;;14.90;100.00;99924.44;4989606;28;20269;-50
2022/11/04 00:40:12;;;;;;;1.05;0.70;;;;;;;14.79;100.00;99921.81;4991045;28;20085;-52
2022/11/04 00:42:38;;;;;;;1.97;0.90;;;;;;;15.08;100.00;99924.38;4987721;28;20038;-53
2022/11/04 00:45:04;;;;;;;2.65;0.80;;;;;;;14.76;100.00;99929.34;4987630;28;20310;-52
2022/11/04 00:47:30;;;;;;;1.25;0.90;;;;;;;14.83;100.00;99934.53;4990029;28;20037;-53
2022/11/04 00:49:55;;;;;;;4.60;0.93;;;;;;;15.03;100.00;99958.25;4989849;28;20039;-50
2022/11/04 00:52:21;;;;;;;1.40;1.00;;;;;;;15.29;100.00;99942.47;4992236;28;20105;-54
2022/11/04 00:54:46;;;;;;;2.25;1.02;;;;;;;15.03;100.00;99960.13;4990106;28;20069;-52
2022/11/04 00:57:13;;;;;;;3.10;1.05;;;;;;;15.18;100.00;99965.75;4990099;28;20047;-52
2022/11/04 00:59:39;;;;;;;3.63;1.00;;;;;;;14.65;100.00;99964.34;4987802;28;20045;-52
2022/11/04 01:02:06;;;;;;;2.60;0.90;;;;;;;14.55;100.00;99983.84;4989102;28;20279;-50
2022/11/04 01:04:31;;;;;;;;;;;;;;;14.68;100.00;99974.63;4990704;28;20109;-50
2022/11/04 01:06:57;;;;;;;1.27;1.00;;;;;;;14.57;100.00;99984.41;4988698;28;19914;-50
2022/11/04 01:09:23;;;;;;;2.80;1.05;;;;;;;14.57;100.00;99979.03;4989957;28;20041;-52
2022/11/04 01:11:49;;;;;;;5.43;1.52;;;;;;;14.80;100.00;99994.22;4989229;28;20039;-51
2022/11/04 01:14:15;;;;;;;4.10;2.38;;;;;;;14.57;100.00;99973.66;4989520;28;20094;-54
2022/11/04 01:16:42;;;;;;;6.95;2.53;;;;;;;14.59;100.00;99987.69;4988589;28;20035;-51
2022/11/04 01:19:08;;;;;;;7.18;3.25;;;;;;;14.60;100.00;99986.63;4990455;28;20031;-53
2022/11/04 01:21:34;;;;;;;6.95;3.17;;;;;;;14.28;100.00;99973.66;4987664;28;20042;-49
2022/11/04 01:23:59;;;;;;;9.77;4.17;;;;;;;14.20;100.00;99975.69;4988541;28;20031;-49
2022/11/04 01:26:26;;;;;;;7.18;4.53;;;;;;;14.67;100.00;99981.09;4989764;28;20058;-52
2022/11/04 01:28:53;;;;;;;12.37;6.03;;;;;;;14.60;100.00;99976.66;5007442;28;20054;-51
2022/11/04 01:31:22;;;;;;;10.43;5.80;;;;;;;14.37;100.00;99982.16;4990017;28;20302;-54
2022/11/04 01:33:48;;;;;;;16.80;7.70;;;;;;;14.26;100.00;99986.53;4987817;28;20292;-51
2022/11/04 01:36:14;;;;;;;20.53;8.77;;;;;;;14.51;100.00;99988.06;4987444;28;20283;-49
2022/11/04 01:38:40;;;;;;;18.33;9.10;;;;;;;14.46;100.00;99991.50;4989024;28;20288;-52
2022/11/04 01:41:07;;;;;;;18.60;9.93;;;;;;;14.42;100.00;99999.22;4992241;28;20045;-51
2022/11/04 01:43:52;;;;;;;20.00;10.40;;;;;;;14.88;100.00;100011.84;4987952;28;20043;-53
2022/11/04 01:46:25;;;;;;;23.13;10.90;;;;;;;14.62;100.00;100019.47;4987148;28;20265;-54
2022/11/04 01:48:52;;;;;;;19.43;10.37;;;;;;;14.60;100.00;100019.72;4987995;28;20344;-52
2022/11/04 01:51:19;;;;;;;26.93;11.07;;;;;;;14.81;100.00;100009.31;4988945;28;20357;-49
2022/11/04 01:53:47;;;;;;;23.53;11.67;;;;;;;14.46;100.00;100026.47;4984754;28;20283;-53
2022/11/04 01:56:14;;;;;;;24.37;12.13;;;;;;;14.31;100.00;100030.50;4997031;28;20284;-51
2022/11/04 01:58:46;;;;;;;26.80;13.03;;;;;;;14.87;100.00;100032.56;4988037;28;20101;-54
2022/11/04 02:01:12;;;;;;;24.57;13.33;;;;;;;14.75;100.00;100035.31;4989354;28;20280;-51
2022/11/04 02:03:51;;;;;;;30.92;14.75;;;;;;;14.57;100.00;100033.66;4988602;28;20268;-52
2022/11/04 02:06:19;;;;;;;35.60;14.90;;;;;;;14.47;100.00;100050.41;4991236;28;20041;-51
2022/11/04 02:08:46;;;;;;;31.10;15.20;;;;;;;14.40;100.00;100043.53;4989661;28;20340;-52
2022/11/04 02:12:48;;;;;;;33.45;15.73;;;;;;;14.41;100.00;100045.19;4985855;28;20297;-53
2022/11/04 02:13:59;;;;;;;35.90;18.00;;;;;;;14.59;100.00;100049.56;4993565;28;20046;-54
2022/11/04 02:16:43;;;;;;;37.60;18.37;;;;;;;14.73;100.00;100048.22;4991146;28;20272;-52
2022/11/04 02:19:51;;;;;;;38.73;19.43;;;;;;;14.85;100.00;100050.03;4987973;28;20269;-54
2022/11/04 02:22:44;;;;;;;35.72;18.80;;;;;;;15.57;100.00;100051.13;4989627;28;20250;-51
2022/11/04 02:25:30;;;;;;;42.03;19.90;;;;;;;14.90;100.00;100053.63;4976684;28;20038;-52
2022/11/04 02:28:26;;;;;;;38.10;20.50;;;;;;;15.16;100.00;100055.91;4986440;28;20333;-52
2022/11/04 02:31:26;;;;;;;51.47;23.70;;;;;;;15.17;100.00;100062.94;4986421;28;20304;-53
2022/11/04 02:34:03;;;;;;;47.70;23.30;;;;;;;15.21;100.00;100058.69;4987615;28;20277;-53
2022/11/04 02:36:42;;;;;;;56.33;26.40;;;;;;;15.20;100.00;100062.44;4989295;28;20399;-52
2022/11/04 02:39:25;;;;;;;56.70;25.87;;;;;;;15.15;100.00;100065.06;4990908;28;20502;-53
2022/11/04 02:41:57;;;;;;;51.83;25.43;;;;;;;14.81;100.00;100059.66;4996253;28;20268;-50
2022/11/04 02:44:34;;;;;;;62.37;27.50;;;;;;;14.90;100.00;100064.41;4988708;28;20273;-50
2022/11/04 02:47:12;;;;;;;59.70;27.43;;;;;;;15.60;100.00;100066.00;4988875;28;20276;-53
2022/11/04 02:49:57;;;;;;;53.00;26.20;;;;;;;15.17;100.00;100068.31;4989527;28;20273;-55
2022/11/04 02:52:35;;;;;;;59.57;28.10;;;;;;;15.00;100.00;100074.53;4991683;28;20276;-53
2022/11/04 02:55:25;;;;;;;70.87;29.87;;;;;;;15.30;100.00;100083.34;4990694;28;20284;-55
2022/11/04 02:57:54;;;;;;;63.30;27.63;;;;;;;15.82;100.00;100086.78;4990620;28;20269;-51
2022/11/04 03:00:20;;;;;;;65.33;28.00;;;;;;;15.55;100.00;100088.31;4990476;28;20290;-53
2022/11/04 03:02:54;;;;;;;56.63;27.00;;;;;;;16.34;100.00;100085.56;4992239;28;20269;-51
2022/11/04 03:05:26;;;;;;;60.97;26.80;;;;;;;15.78;100.00;100089.16;4990717;28;20035;-52
2022/11/04 03:07:57;;;;;;;55.90;26.90;;;;;;;15.81;100.00;100090.56;4989377;28;20273;-54
2022/11/04 03:10:33;;;;;;;48.83;23.90;;;;;;;15.73;100.00;100089.09;4989252;28;20281;-52
2022/11/04 03:13:12;;;;;;;52.67;24.90;;;;;;;15.81;100.00;100099.44;4991052;28;20269;-51
2022/11/04 03:15:41;;;;;;;56.90;25.43;;;;;;;15.63;100.00;100100.53;4992121;28;20066;-53
2022/11/04 03:18:27;;;;;;;44.40;22.83;;;;;;;15.77;100.00;100098.31;4993378;28;20296;-50
2022/11/04 03:20:56;;;;;;;44.50;22.35;;;;;;;15.12;100.00;100101.38;4987226;28;20260;-53
2022/11/04 03:23:22;;;;;;;38.23;19.30;;;;;;;15.09;100.00;100101.03;4990145;28;20043;-47
2022/11/04 03:25:50;;;;;;;40.37;19.67;;;;;;;15.56;100.00;100103.41;4990635;28;20277;-51
2022/11/04 03:28:49;;;;;;;44.00;18.47;;;;;;;15.10;100.00;100114.25;4993867;28;20043;-50
2022/11/04 03:31:33;;;;;;;41.10;19.03;;;;;;;14.94;100.00;100112.38;4989192;28;20300;-49
2022/11/04 03:33:58;;;;;;;33.57;14.77;;;;;;;15.24;100.00;100117.47;4991271;28;20273;-53
2022/11/04 03:36:24;;;;;;;35.72;15.85;;;;;;;15.33;100.00;100120.56;4991403;28;20265;-52
2022/11/04 03:38:51;;;;;;;39.40;15.50;;;;;;;15.45;100.00;100109.69;4988508;28;20062;-52
2022/11/04 03:41:26;;;;;;;30.53;14.43;;;;;;;15.37;100.00;100121.72;4989263;28;20081;-51
2022/11/04 03:43:51;;;;;;;27.23;13.90;;;;;;;15.10;100.00;100114.25;4990994;28;20299;-48
2022/11/04 03:46:18;;;;;;;36.60;13.77;;;;;;;15.26;100.00;100125.28;4987880;28;20264;-49
2022/11/04 03:48:46;;;;;;;24.73;13.57;;;;;;;15.24;100.00;100127.41;4991297;28;20038;-51
2022/11/04 03:51:12;;;;;;;24.57;12.27;;;;;;;15.32;100.00;100127.00;4989301;28;20055;-51
2022/11/04 03:53:38;;;;;;;32.00;13.80;;;;;;;14.77;100.00;100127.44;4983125;28;20375;-52
2022/11/04 03:56:26;;;;;;;39.47;13.55;;;;;;;14.55;100.00;100129.94;4990879;28;20100;-55
2022/11/04 03:59:30;;;;;;;27.33;12.13;;;;;;;14.56;100.00;100133.47;4983975;28;20031;-54
2022/11/04 04:02:01;;;;;;;26.30;12.87;;;;;;;14.61;100.00;100128.97;4990010;28;20264;-50
2022/11/04 04:04:29;;;;;;;31.30;11.80;;;;;;;14.51;100.00;100127.94;4991352;28;20344;-52
2022/11/04 04:07:03;;;;;;;31.00;12.43;;;;;;;14.61;100.00;100137.03;4982738;28;20279;-53
2022/11/04 04:09:43;;;;;;;30.57;11.93;;;;;;;14.25;100.00;100132.81;4986965;28;20273;-54
2022/11/04 04:12:24;;;;;;;25.20;11.20;;;;;;;14.61;100.00;100133.53;4985354;28;20299;-53
2022/11/04 04:14:57;;;;;;;24.42;10.07;;;;;;;14.38;100.00;100129.03;4983168;28;20365;-57
2022/11/04 04:17:28;;;;;;;26.00;11.33;;;;;;;14.29;100.00;100139.34;4987344;28;20058;-52
2022/11/04 04:19:58;;;;;;;25.50;10.65;;;;;;;13.86;100.00;100138.72;4984279;28;20285;-54
2022/11/04 04:22:35;;;;;;;27.75;10.23;;;;;;;14.13;100.00;100130.97;4989656;28;20027;-52
2022/11/04 04:27:51;;;;;;;26.05;9.05;;;;;;;14.51;100.00;100133.34;4987784;28;20043;-50
2022/11/04 04:30:16;;;;;;;24.15;9.23;;;;;;;13.85;100.00;100131.72;4992546;28;20042;-48
2022/11/04 04:32:51;;;;;;;24.40;9.67;;;;;;;13.90;100.00;100132.66;4986769;28;20035;-51
2022/11/04 04:35:41;;;;;;;19.57;8.17;;;;;;;13.85;100.00;100140.59;4991146;28;20039;-53
2022/11/04 04:46:50;;;;;;;24.17;8.43;;;;;;;14.09;100.00;100156.72;4997533;28;20279;-52
2022/11/04 04:49:16;;;;;;;24.13;9.00;;;;;;;14.16;100.00;100157.41;4992497;28;20340;-51
2022/11/04 04:51:46;;;;;;;23.67;8.50;;;;;;;14.09;100.00;100156.72;4987320;28;20288;-48
2022/11/04 04:54:12;;;;;;;19.37;7.83;;;;;;;14.43;100.00;100166.84;4995690;28;20047;-53
2022/11/04 04:56:37;;;;;;;17.50;6.50;;;;;;;14.22;100.00;100163.72;4991374;28;20273;-50
2022/11/04 04:59:03;;;;;;;17.00;7.70;;;;;;;13.90;100.00;100156.00;4990065;28;20066;-51
2022/11/04 05:01:28;;;;;;;17.10;6.80;;;;;;;13.97;100.00;100164.78;4989082;28;20023;-51
2022/11/04 05:03:54;;;;;;;17.97;7.53;;;;;;;13.80;100.00;100161.16;4990560;28;20268;-51
2022/11/04 05:06:19;;;;;;;14.57;5.97;;;;;;;13.69;100.00;100166.28;4998765;28;20065;-52
2022/11/04 05:08:45;;;;;;;21.53;8.17;;;;;;;14.07;100.00;100166.06;4988557;28;20030;-49
2022/11/04 05:11:10;;;;;;;17.63;6.72;;;;;;;14.16;100.00;100162.78;4988368;28;20096;-49
2022/11/04 05:13:37;;;;;;;18.27;6.25;;;;;;;13.73;100.00;100166.66;4987475;28;20042;-55
2022/11/04 05:16:05;;;;;;;17.03;6.20;;;;;;;13.75;100.00;100178.81;4990050;28;20039;-51
2022/11/04 05:18:30;;;;;;;19.20;6.20;;;;;;;13.44;100.00;100178.06;4989534;28;20103;-52
2022/11/04 05:20:56;;;;;;;26.33;7.53;;;;;;;13.64;100.00;100181.47;4987369;28;20277;-51
2022/11/04 05:23:21;;;;;;;15.67;5.37;;;;;;;13.87;100.00;100178.81;4995062;28;20155;-52
2022/11/04 05:25:47;;;;;;;19.70;5.03;;;;;;;14.02;100.00;100182.88;4990332;28;20043;-52
2022/11/04 05:28:12;;;;;;;21.63;5.47;;;;;;;13.93;100.00;100187.00;4988291;28;20046;-50
2022/11/04 05:30:39;;;;;;;17.45;5.57;;;;;;;13.96;100.00;100184.66;4988016;28;20034;-52
2022/11/04 05:33:05;;;;;;;14.20;5.27;;;;;;;13.93;100.00;100189.69;4988706;28;20046;-52
2022/11/04 05:35:31;;;;;;;16.67;5.73;;;;;;;13.63;100.00;100191.41;4988133;28;20272;-53
2022/11/04 05:37:56;;;;;;;17.20;6.03;;;;;;;13.42;100.00;100187.38;4990138;28;20056;-50
2022/11/04 05:40:23;;;;;;;20.30;6.33;;;;;;;13.37;100.00;100198.78;4988026;28;20038;-53
2022/11/04 05:42:48;;;;;;;18.40;5.25;;;;;;;13.25;100.00;100196.06;4988046;28;20280;-50
2022/11/04 05:45:14;;;;;;;14.83;4.87;;;;;;;13.10;100.00;100206.41;4990023;28;20038;-50
2022/11/04 05:47:39;;;;;;;16.00;5.30;;;;;;;13.18;100.00;100214.97;4988376;28;20057;-52
2022/11/04 05:50:05;;;;;;;11.37;5.53;;;;;;;13.32;100.00;100218.28;4990687;28;20285;-53
2022/11/04 05:52:32;;;;;;;20.92;5.65;;;;;;;13.10;100.00;100225.19;4989071;28;20063;-53
2022/11/04 05:54:57;;;;;;;22.23;8.25;;;;;;;13.02;100.00;100229.84;4989121;28;20034;-52
2022/11/04 05:57:22;;;;;;;32.33;8.30;;;;;;;13.30;100.00;100230.31;4991595;28;20070;-53
2022/11/04 05:59:48;;;;;;;22.38;9.85;;;;;;;13.35;100.00;100230.44;4989160;28;20035;-52
2022/11/04 06:02:14;;;;;;;26.60;8.73;;;;;;;13.47;100.00;100231.31;4988856;28;20028;-50
2022/11/04 06:04:39;;;;;;;18.77;7.80;;;;;;;13.80;100.00;100237.22;4990808;28;20107;-50
2022/11/04 06:07:06;;;;;;;32.13;9.03;;;;;;;14.19;100.00;100242.97;4988976;28;20034;-52
2022/11/04 06:09:40;;;;;;;22.42;8.38;;;;;;;14.36;100.00;100249.50;4987452;28;20035;-54
2022/11/04 06:12:13;;;;;;;26.77;10.60;;;;;;;14.13;100.00;100249.28;4988692;28;20058;-53
2022/11/04 06:14:40;;;;;;;21.03;8.53;;;;;;;14.27;100.00;100254.41;4990132;28;20272;-55
2022/11/04 06:17:06;;;;;;;21.23;7.50;;;;;;;14.12;100.00;100257.56;4992730;28;20304;-50
2022/11/04 06:19:32;;;;;;;19.83;8.80;;;;;;;14.26;100.00;100263.53;4994916;28;20031;-56
2022/11/04 06:21:59;;;;;;;25.70;7.72;;;;;;;14.38;100.00;100261.69;4992084;28;20054;-53
2022/11/04 06:24:25;;;;;;;22.23;8.00;;;;;;;14.35;100.00;100270.22;4989874;28;20050;-53
2022/11/04 06:26:51;;;;;;;23.45;7.97;;;;;;;14.15;100.00;100268.69;4988009;28;20287;-54
2022/11/04 06:29:16;;;;;;;22.08;8.73;;;;;;;14.65;100.00;100266.56;4994165;28;20039;-55
2022/11/04 06:31:42;;;;;;;22.07;8.10;;;;;;;14.95;100.00;100268.28;4993293;28;20031;-54
2022/11/04 06:34:07;;;;;;;30.05;10.55;;;;;;;14.13;100.00;100275.34;4991260;28;20285;-56
2022/11/04 06:36:33;;;;;;;22.30;10.53;;;;;;;14.00;100.00;100271.84;4993689;28;20031;-54
2022/11/04 06:38:58;;;;;;;26.50;10.07;;;;;;;14.17;100.00;100271.97;4988614;28;20027;-55
2022/11/04 06:41:24;;;;;;;25.27;9.52;;;;;;;14.30;100.00;100280.84;4991897;28;20035;-54
2022/11/04 06:43:49;;;;;;;21.77;9.10;;;;;;;14.40;100.00;100282.94;4989644;28;20050;-54
2022/11/04 06:46:26;;;;;;;24.03;8.47;;;;;;;14.45;100.00;100278.50;4993420;28;20035;-54
2022/11/04 06:48:52;;;;;;;11.70;5.67;;;;;;;14.77;100.00;100288.09;4991754;28;20039;-54
2022/11/04 06:51:18;;;;;;;16.58;5.57;;;;;;;14.49;100.00;100287.75;4993659;28;20312;-55
2022/11/04 06:53:43;;;;;;;25.10;5.17;;;;;;;14.42;100.00;100286.25;4994077;28;20035;-53
2022/11/04 06:56:09;;;;;;;13.17;5.17;;;;;;;14.33;100.00;100293.84;4987952;28;20330;-53
2022/11/04 06:58:34;;;;;;;16.73;4.37;;;;;;;14.49;100.00;100293.13;4990452;28;20038;-54
2022/11/04 07:01:00;;;;;;;10.03;4.73;;;;;;;14.78;100.00;100289.72;4993616;28;20283;-54
2022/11/04 07:03:26;;;;;;;27.08;5.78;;;;;;;14.37;100.00;100289.63;4991620;28;20038;-55
2022/11/04 07:05:52;;;;;;;19.93;4.90;;;;;;;14.52;100.00;100299.09;4990649;28;20043;-53
2022/11/04 07:08:17;;;;;;;24.27;6.20;;;;;;;14.59;100.00;100297.13;4987080;28;20357;-57
2022/11/04 07:10:43;;;;;;;15.80;5.43;;;;;;;14.80;100.00;100305.66;4988492;28;20320;-54
2022/11/04 07:13:09;;;;;;;16.33;6.83;;;;;;;14.95;100.00;100295.19;4991650;28;20292;-56
2022/11/04 07:15:37;;;;;;;23.08;8.30;;;;;;;14.91;100.00;100305.63;4989482;28;20031;-55
2022/11/04 07:18:03;;;;;;;20.60;7.67;;;;;;;14.73;100.00;100298.50;4992623;28;20148;-54
2022/11/04 07:20:28;;;;;;;28.40;7.57;;;;;;;15.03;100.00;100305.59;4989585;28;20262;-55
2022/11/04 07:22:54;;;;;;;28.07;7.57;;;;;;;15.05;100.00;100303.50;4986678;28;20054;-56
2022/11/04 07:25:20;;;;;;;26.35;8.95;;;;;;;14.85;100.00;100300.38;4993433;28;20038;-56
2022/11/04 07:27:45;;;;;;;28.67;10.40;;;;;;;14.79;100.00;100301.34;4988775;28;20274;-55
2022/11/04 07:30:11;;;;;;;22.65;9.35;;;;;;;14.36;100.00;100296.06;4991398;28;20043;-57
2022/11/04 07:32:37;;;;;;;23.98;9.05;;;;;;;14.15;100.00;100309.03;4988818;28;20042;-56
2022/11/04 07:35:03;;;;;;;19.33;6.53;;;;;;;14.60;100.00;100306.81;4991150;28;20086;-57
2022/11/04 07:37:28;;;;;;;14.45;6.72;;;;;;;14.71;100.00;100308.69;4988860;28;20064;-58
2022/11/04 07:39:54;;;;;;;25.37;6.77;;;;;;;14.46;100.00;100311.63;4993702;28;20039;-54
2022/11/04 07:42:19;;;;;;;19.77;6.87;;;;;;;14.64;100.00;100310.66;4990937;28;20299;-50
2022/11/04 07:44:51;;;;;;;18.90;7.67;;;;;;;14.68;100.00;100316.41;5009873;28;20058;-52
2022/11/04 07:47:17;;;;;;;35.73;9.20;;;;;;;15.17;100.00;100324.16;4993043;28;20289;-56
2022/11/04 07:49:43;;;;;;;22.17;7.60;;;;;;;15.05;100.00;100330.44;4988438;28;20036;-52
2022/11/04 07:52:08;;;;;;;24.65;7.25;;;;;;;15.37;100.00;100334.56;4990047;28;20044;-53
2022/11/04 07:54:34;;;;;;;14.70;7.23;;;;;;;15.22;100.00;100335.03;4991598;28;20050;-56
2022/11/04 07:57:00;;;;;;;17.97;7.67;;;;;;;14.96;100.00;100336.41;4991390;28;20273;-54
2022/11/04 07:59:25;;;;;;;19.45;9.07;;;;;;;15.34;100.00;100340.41;4987711;28;20042;-57
2022/11/04 08:01:50;;;;;;;20.00;8.60;;;;;;;15.88;100.00;100337.38;4991031;28;20031;-56
2022/11/04 08:04:16;;;;;;;22.95;7.57;;;;;;;16.16;100.00;100351.88;4992980;28;20069;-55
2022/11/04 08:06:42;;;;;;;12.05;5.53;;;;;;;16.57;100.00;100354.41;4990109;28;20039;-52
2022/11/04 08:09:08;;;;;;;15.23;6.00;;;;;;;16.41;100.00;100366.84;4991411;28;20053;-55
2022/11/04 08:11:33;;;;;;;14.02;5.78;;;;;;;15.95;100.00;100358.00;4989082;28;20139;-55
2022/11/04 08:14:02;;;;;;;13.05;5.35;;;;;;;16.03;100.00;100360.28;4987418;28;20047;-54
2022/11/04 08:16:28;;;;;;;14.20;4.97;;;;;;;16.81;100.00;100358.75;4993109;28;20035;-55
2022/11/04 08:18:54;;;;;;;13.83;4.70;;;;;;;16.79;100.00;100367.13;4991824;28;20279;-57
2022/11/04 08:21:21;;;;;;;9.07;4.70;;;;;;;16.93;100.00;100364.88;4987966;28;20269;-53
2022/11/04 08:23:47;;;;;;;8.57;4.50;;;;;;;17.13;100.00;100371.66;4988819;28;20064;-54
2022/11/04 08:26:15;;;;;;;13.80;4.30;;;;;;;17.68;100.00;100377.97;4987930;28;20035;-52
2022/11/04 08:28:41;;;;;;;13.73;4.23;;;;;;;18.23;100.00;100379.84;4989827;28;20046;-53
2022/11/04 08:31:12;;;;;;;10.38;3.88;;;;;;;18.60;100.00;100388.00;4990555;28;20360;-55
2022/11/04 08:33:38;;;;;;;15.13;4.27;;;;;;;18.94;100.00;100394.13;4987230;28;20105;-55
2022/11/04 08:36:18;;;;;;;11.60;3.90;;;;;;;19.28;100.00;100385.66;4988845;28;20284;-55
2022/11/04 08:38:44;;;;;;;21.73;5.70;;;;;;;19.51;100.00;100391.72;4989664;28;20041;-54
2022/11/04 08:41:12;;;;;;;14.80;3.72;;;;;;;20.06;100.00;100394.81;4989994;28;20272;-54
2022/11/04 08:43:38;;;;;;;10.93;3.47;;;;;;;19.73;100.00;100400.47;4989486;28;20053;-53
2022/11/04 08:46:07;;;;;;;12.95;3.35;;;;;;;19.99;100.00;100405.97;4988835;28;20297;-55
2022/11/04 08:48:34;;;;;;;13.80;3.37;;;;;;;20.55;100.00;100409.75;4992172;28;20049;-52
2022/11/04 08:51:01;;;;;;;10.60;3.17;;;;;;;20.01;100.00;100413.81;4988799;28;20042;-55
2022/11/04 08:53:27;;;;;;;11.57;3.17;;;;;;;20.16;100.00;100413.84;4990197;28;20045;-51
2022/11/04 08:55:53;;;;;;;11.18;3.33;;;;;;;20.25;100.00;100408.69;4990866;28;20038;-52
2022/11/04 08:58:21;;;;;;;10.27;3.67;;;;;;;21.00;100.00;100420.03;4990502;28;20034;-53
2022/11/04 09:00:48;;;;;;;13.10;3.57;;;;;;;21.29;100.00;100427.56;4990335;28;20035;-53
2022/11/04 09:03:14;;;;;;;10.50;3.78;;;;;;;21.48;100.00;100433.22;4988609;28;20027;-53
2022/11/04 09:05:46;;;;;;;9.10;2.75;;;;;;;21.59;100.00;100434.78;4989707;28;20031;-52
2022/11/04 09:08:12;;;;;;;13.70;3.10;;;;;;;21.56;100.00;100432.63;4991254;28;20035;-55
2022/11/04 09:10:45;;;;;;;12.60;2.97;;;;;;;21.80;100.00;100439.31;4991457;28;20042;-51
2022/11/04 09:13:11;;;;;;;12.97;3.67;;;;;;;21.94;100.00;100442.25;4990527;28;20041;-52
2022/11/04 09:15:38;;;;;;;11.63;3.43;;;;;;;21.09;100.00;100436.59;4990195;28;20038;-51
2022/11/04 09:18:03;;;;;;;14.45;3.75;;;;;;;20.64;100.00;100453.50;4991320;28;20061;-55
2022/11/04 09:20:30;;;;;;;15.73;4.00;;;;;;;20.14;100.00;100456.72;4990166;28;20038;-51
2022/11/04 09:22:56;;;;;;;12.50;3.73;;;;;;;19.63;100.00;100463.63;4984896;28;20042;-52
2022/11/04 09:25:22;;;;;;;9.27;3.60;;;;;;;19.96;100.00;100449.09;4986867;28;20166;-47
2022/11/04 09:27:47;;;;;;;9.85;4.28;;;;;;;19.73;100.00;100459.31;4990928;28;20034;-48
2022/11/04 09:30:13;;;;;;;8.27;4.63;;;;;;;19.32;100.00;100462.69;4989550;28;20045;-52
2022/11/04 09:32:38;;;;;;;16.02;4.78;;;;;;;18.84;100.00;100470.75;4987605;28;20035;-55
2022/11/04 09:35:04;;;;;;;12.67;4.37;;;;;;;18.68;100.00;100476.03;4986173;28;20045;-52
2022/11/04 09:37:30;;;;;;;11.38;4.28;;;;;;;18.39;100.00;100472.84;4987555;28;20117;-54
2022/11/04 09:39:56;;;;;;;16.05;4.03;;;;;;;18.53;100.00;100470.50;4989226;28;20035;-53
2022/11/04 09:42:47;;;;;;;17.02;4.10;;;;;;;18.72;100.00;100477.19;4986271;28;20031;-50
2022/11/04 09:45:18;;;;;;;14.23;5.00;;;;;;;18.90;100.00;100478.66;4988314;28;20098;-50
2022/11/04 09:47:48;;;;;;;13.07;4.30;;;;;;;19.29;100.00;100480.28;4985118;28;20057;-52
2022/11/04 09:50:45;;;;;;;13.50;4.50;;;;;;;20.80;100.00;100491.56;4988712;28;20110;-51
2022/11/04 09:53:18;;;;;;;11.93;4.43;;;;;;;22.13;100.00;100499.56;4988674;28;20027;-51
2022/11/04 09:55:53;;;;;;;17.13;4.10;;;;;;;21.98;100.00;100512.16;4990530;28;20042;-56
2022/11/04 09:58:18;;;;;;;12.37;3.90;;;;;;;21.90;100.00;100504.59;4986867;28;20035;-52
2022/11/04 10:00:55;;;;;;;13.57;3.83;;;;;;;21.91;100.00;100503.50;4988502;28;20039;-51
2022/11/04 10:03:50;;;;;;;12.38;4.20;;;;;;;20.94;100.00;100500.78;4988941;28;20031;-49
2022/11/04 10:06:16;;;;;;;14.53;4.40;;;;;;;20.95;100.00;100510.56;4987618;28;20098;-54
2022/11/04 10:08:57;;;;;;;12.93;5.10;;;;;;;20.70;100.00;100512.16;4990154;28;20050;-50
2022/11/04 10:11:41;;;;;;;16.53;4.73;;;;;;;20.66;100.00;100529.31;4989228;28;20050;-54
2022/11/04 10:14:42;;;;;;;13.07;5.07;;;;;;;19.94;100.00;100516.38;4989780;28;20042;-49
2022/11/04 10:17:32;;;;;;;11.50;4.67;;;;;;;19.91;100.00;100525.88;4990268;28;20073;-50
2022/11/04 10:20:17;;;;;;;13.77;4.70;;;;;;;19.78;100.00;100527.16;4988343;28;20050;-49
2022/11/04 10:23:00;;;;;;;7.80;4.70;;;;;;;19.96;100.00;100527.78;4988406;28;20035;-51
2022/11/04 10:25:33;;;;;;;13.20;5.60;;;;;;;19.28;100.00;100527.44;4987541;28;20039;-53
2022/11/04 10:27:59;;;;;;;12.27;5.60;;;;;;;19.17;100.00;100533.88;4987662;28;20069;-54
2022/11/04 10:30:24;;;;;;;15.10;5.80;;;;;;;19.58;100.00;100525.16;4987915;28;20129;-52
2022/11/04 10:32:51;;;;;;;;;;;;;;;19.98;100.00;100529.16;4991200;28;20035;-54
2022/11/04 10:35:31;;;;;;;11.07;5.90;;;;;;;20.53;100.00;100533.34;4986845;28;19928;-52
2022/11/04 10:38:08;;;;;;;17.70;7.50;;;;;;;20.44;100.00;100531.16;4983984;28;20035;-49
2022/11/04 10:40:38;;;;;;;21.87;8.27;;;;;;;20.11;100.00;100524.31;4986490;28;20035;-55
2022/11/04 10:43:12;;;;;;;23.03;9.30;;;;;;;19.43;100.00;100529.41;4988520;28;20035;-55
2022/11/04 10:45:52;;;;;;;17.63;9.90;;;;;;;20.14;100.00;100537.34;4985712;28;20065;-51
2022/11/04 10:48:28;;;;;;;20.03;10.97;;;;;;;18.97;100.00;100550.75;4985023;28;20043;-53
2022/11/04 10:50:58;;;;;;;23.38;10.75;;;;;;;19.93;100.00;100553.56;4986411;28;20039;-52
2022/11/04 10:53:29;;;;;;;22.37;11.53;;;;;;;19.62;100.00;100559.66;4985695;28;20054;-53
2022/11/04 10:56:21;;;;;;;21.03;10.83;;;;;;;19.96;100.00;100563.06;4990148;28;20057;-55
2022/11/04 10:58:47;;;;;;;23.73;12.10;;;;;;;19.48;100.00;100569.31;4986025;28;20039;-52
2022/11/04 11:01:33;;;;;;;21.80;11.32;;;;;;;20.13;100.00;100565.56;4988396;28;20043;-51
2022/11/04 11:04:01;;;;;;;23.67;12.37;;;;;;;20.27;100.00;100579.47;4992323;28;20035;-53
2022/11/04 11:06:29;;;;;;;22.57;10.67;;;;;;;19.66;100.00;100578.09;4990116;28;20073;-54
2022/11/04 11:09:27;;;;;;;26.87;12.60;;;;;;;19.55;100.00;100575.31;4989956;28;20030;-52
2022/11/04 11:11:59;;;;;;;21.55;11.23;;;;;;;20.04;100.00;100573.41;4993342;28;20094;-54
2022/11/04 11:14:27;;;;;;;24.20;11.87;;;;;;;20.58;100.00;100574.13;4991801;28;20049;-51
2022/11/04 11:17:13;;;;;;;26.73;11.90;;;;;;;20.83;100.00;100567.91;4991788;28;20114;-54
2022/11/04 11:20:04;;;;;;;25.53;11.33;;;;;;;21.05;100.00;100567.66;4991866;28;20116;-49
2022/11/04 11:22:40;;;;;;;22.00;12.43;;;;;;;22.87;100.00;100566.94;4990802;28;20027;-53
2022/11/04 11:25:19;;;;;;;20.53;9.80;;;;;;;22.11;100.00;100573.38;4990356;28;20065;-52
2022/11/04 11:27:48;;;;;;;23.17;10.10;;;;;;;21.73;100.00;100564.81;4990193;28;20034;-51
2022/11/04 11:30:51;;;;;;;16.63;9.20;;;;;;;21.55;100.00;100572.47;4991333;28;20038;-51
2022/11/04 11:33:26;;;;;;;25.77;9.87;;;;;;;21.60;100.00;100582.53;4989653;28;20031;-53
2022/11/04 11:35:57;;;;;;;14.97;8.60;;;;;;;21.17;100.00;100585.56;4991522;28;20049;-53
2022/11/04 11:38:28;;;;;;;20.00;9.00;;;;;;;20.77;100.00;100583.38;4986577;28;20039;-50
2022/11/04 11:41:07;;;;;;;18.50;8.87;;;;;;;20.29;100.00;100586.25;4989827;28;20035;-53
2022/11/04 11:43:35;;;;;;;28.43;10.13;;;;;;;20.71;100.00;100589.88;4991232;28;20066;-53
2022/11/04 11:46:02;;;;;;;27.07;9.00;;;;;;;20.48;100.00;100586.56;4988961;28;20090;-50
2022/11/04 11:48:38;;;;;;;;;;;;;;;20.58;100.00;100585.78;4991891;28;20133;-54
2022/11/04 11:51:05;;;;;;;18.20;8.87;;;;;;;20.93;100.00;100591.56;4990520;28;19918;-51
2022/11/04 11:53:34;;;;;;;20.57;8.90;;;;;;;21.48;100.00;100590.97;4991465;28;20061;-55